createdAt,value
2023-03-06T00:02:10.102Z,3.65
2023-03-06T00:04:37.871Z,3.97
2023-03-06T00:07:05.725Z,4.18
2023-03-06T00:09:33.625Z,3.33
2023-03-06T00:12:01.407Z,4.18
2023-03-06T00:14:30.552Z,3.90
2023-03-06T00:16:58.443Z,4.30
2023-03-06T00:19:26.303Z,3.70
2023-03-06T00:21:54.642Z,3.67
2023-03-06T00:24:22.554Z,4.10
2023-03-06T00:26:50.912Z,4.95
2023-03-06T00:29:19.216Z,4.57
2023-03-06T00:31:48.417Z,4.75
2023-03-06T00:34:16.421Z,4.53
2023-03-06T00:36:44.248Z,5.10
2023-03-06T00:39:11.958Z,5.82
2023-03-06T00:41:39.782Z,5.40
2023-03-06T00:44:07.549Z,6.50
2023-03-06T00:46:35.336Z,6.97
2023-03-06T00:49:04.745Z,7.10
2023-03-06T00:51:32.511Z,6.85
2023-03-06T00:54:00.216Z,7.35
2023-03-06T00:56:27.991Z,6.07
2023-03-06T00:58:55.707Z,6.35
2023-03-06T01:01:26.427Z,7.95
2023-03-06T01:03:54.189Z,8.02
2023-03-06T01:06:23.468Z,8.13
2023-03-06T01:08:51.207Z,7.43
2023-03-06T01:11:19.219Z,8.55
2023-03-06T01:13:47.247Z,8.40
2023-03-06T01:16:18.641Z,8.48
2023-03-06T01:18:50.022Z,9.25
2023-03-06T01:21:17.808Z,10.30
2023-03-06T01:23:47.416Z,10.70
2023-03-06T01:26:15.389Z,11.43
2023-03-06T01:28:43.113Z,10.77
2023-03-06T01:31:11.485Z,10.13
2023-03-06T01:33:39.595Z,9.93
2023-03-06T01:36:09.904Z,9.38
2023-03-06T01:38:37.794Z,11.18
2023-03-06T01:41:07.555Z,11.32
2023-03-06T01:43:37.825Z,12.35
2023-03-06T01:46:29.446Z,11.77
2023-03-06T01:49:00.274Z,11.63
2023-03-06T01:51:32.977Z,11.27
2023-03-06T01:54:03.211Z,11.32
2023-03-06T01:56:32.514Z,13.75
2023-03-06T01:59:00.798Z,12.80
2023-03-06T02:01:28.781Z,10.82
2023-03-06T02:03:57.145Z,12.63
2023-03-06T02:06:24.912Z,12.90
2023-03-06T02:08:55.238Z,11.65
2023-03-06T02:11:24.913Z,12.02
2023-03-06T02:13:55.689Z,11.75
2023-03-06T02:16:27.604Z,11.10
2023-03-06T02:18:55.872Z,12.38
2023-03-06T02:21:26.994Z,12.23
2023-03-06T02:24:17.829Z,13.48
2023-03-06T02:26:48.725Z,11.07
2023-03-06T02:29:23.055Z,12.57
2023-03-06T02:31:51.347Z,12.48
2023-03-06T02:34:50.801Z,12.52
2023-03-06T02:37:19.080Z,12.70
2023-03-06T02:39:53.093Z,13.02
2023-03-06T02:42:24.922Z,13.02
2023-03-06T02:44:56.146Z,12.38
2023-03-06T02:47:24.407Z,16.02
2023-03-06T02:49:52.273Z,13.50
2023-03-06T02:52:20.089Z,14.02
2023-03-06T02:54:47.839Z,13.10
2023-03-06T02:57:16.079Z,12.80
2023-03-06T02:59:45.343Z,12.30
2023-03-06T03:02:13.225Z,11.48
2023-03-06T03:04:41.125Z,12.50
2023-03-06T03:07:09.713Z,12.00
2023-03-06T03:09:37.658Z,10.38
2023-03-06T03:12:08.095Z,10.77
2023-03-06T03:14:36.381Z,12.10
2023-03-06T03:17:06.061Z,13.18
2023-03-06T03:19:33.894Z,11.82
2023-03-06T03:22:01.790Z,11.15
2023-03-06T03:24:29.689Z,11.38
2023-03-06T03:26:57.428Z,11.57
2023-03-06T03:29:26.239Z,12.82
2023-03-06T03:31:54.854Z,12.27
2023-03-06T03:34:27.562Z,10.18
2023-03-06T03:36:55.731Z,10.63
2023-03-06T03:39:24.051Z,11.95
2023-03-06T03:41:52.086Z,11.55
2023-03-06T03:44:20.674Z,11.15
2023-03-06T03:46:49.686Z,12.38
2023-03-06T03:49:21.608Z,11.98
2023-03-06T03:51:50.929Z,11.95
2023-03-06T03:54:19.624Z,11.35
2023-03-06T03:56:49.650Z,11.70
2023-03-06T03:59:24.063Z,11.93
2023-03-06T04:02:05.562Z,13.90
2023-03-06T04:04:39.253Z,12.35
2023-03-06T04:07:09.282Z,11.40
2023-03-06T04:09:37.981Z,12.25
2023-03-06T04:12:06.166Z,10.65
2023-03-06T04:14:35.874Z,12.10
2023-03-06T04:17:04.209Z,12.05
2023-03-06T04:19:31.996Z,12.45
2023-03-06T04:22:01.665Z,13.50
2023-03-06T04:24:32.942Z,12.50
2023-03-06T04:27:01.297Z,12.60
2023-03-06T04:29:29.031Z,13.52
2023-03-06T04:31:56.768Z,12.98
2023-03-06T04:34:24.688Z,12.75
2023-03-06T04:36:52.505Z,13.30
2023-03-06T04:39:20.284Z,13.35
2023-03-06T04:41:50.110Z,13.93
2023-03-06T04:44:18.163Z,11.70
2023-03-06T04:46:45.860Z,13.15
2023-03-06T04:49:13.595Z,12.65
2023-03-06T04:51:41.297Z,12.68
2023-03-06T04:54:09.103Z,12.68
2023-03-06T04:56:36.794Z,11.52
2023-03-06T04:59:06.130Z,12.50
2023-03-06T05:01:33.875Z,11.00
2023-03-06T05:04:01.702Z,12.32
2023-03-06T05:06:29.507Z,10.43
2023-03-06T05:08:57.337Z,11.60
2023-03-06T05:11:25.153Z,11.77
2023-03-06T05:13:52.948Z,11.13
2023-03-06T05:16:22.151Z,12.20
2023-03-06T05:18:50.778Z,12.15
2023-03-06T05:21:18.625Z,11.18
2023-03-06T05:23:47.512Z,10.13
2023-03-06T05:26:16.274Z,10.77
2023-03-06T05:28:44.058Z,9.00
2023-03-06T05:31:11.795Z,11.40
2023-03-06T05:33:40.950Z,9.95
2023-03-06T05:36:09.116Z,10.20
2023-03-06T05:38:36.896Z,10.23
2023-03-06T05:41:04.805Z,10.25
2023-03-06T05:43:32.569Z,10.65
2023-03-06T05:46:04.241Z,9.07
2023-03-06T05:48:32.207Z,10.50
2023-03-06T05:51:03.005Z,10.32
2023-03-06T05:53:30.956Z,10.55
2023-03-06T05:55:59.740Z,10.70
2023-03-06T05:58:28.184Z,9.63
2023-03-06T06:00:55.914Z,10.38
2023-03-06T06:03:24.226Z,9.65
2023-03-06T06:05:52.326Z,10.70
2023-03-06T06:08:21.659Z,9.60
2023-03-06T06:10:52.167Z,9.88
2023-03-06T06:13:20.968Z,10.15
2023-03-06T06:15:48.822Z,10.10
2023-03-06T06:18:16.608Z,8.85
2023-03-06T06:20:44.468Z,9.98
2023-03-06T06:23:12.593Z,9.82
2023-03-06T06:25:41.855Z,10.77
2023-03-06T06:28:09.710Z,12.30
2023-03-06T06:30:37.437Z,12.65
2023-03-06T06:33:05.183Z,13.27
2023-03-06T06:35:36.805Z,11.77
2023-03-06T06:38:04.617Z,10.52
2023-03-06T06:40:32.455Z,11.00
2023-03-06T06:43:01.589Z,13.40
2023-03-06T06:45:29.886Z,14.13
2023-03-06T06:47:57.807Z,14.75
2023-03-06T06:50:25.553Z,12.88
2023-03-06T06:52:53.378Z,12.45
2023-03-06T06:55:22.098Z,10.73
2023-03-06T06:57:49.858Z,12.43
2023-03-06T07:00:20.327Z,12.43
2023-03-06T07:02:49.197Z,12.15
2023-03-06T07:05:17.226Z,12.07
2023-03-06T07:07:44.917Z,10.60
2023-03-06T07:10:15.981Z,8.88
2023-03-06T07:12:44.123Z,11.57
2023-03-06T07:15:14.210Z,11.23
2023-03-06T07:17:43.354Z,11.80
2023-03-06T07:20:12.894Z,9.57
2023-03-06T07:22:50.398Z,10.15
2023-03-06T07:25:19.661Z,11.07
2023-03-06T07:27:53.378Z,11.68
2023-03-06T07:30:23.075Z,10.90
2023-03-06T07:32:55.258Z,10.23
2023-03-06T07:35:24.056Z,9.90
2023-03-06T07:37:52.143Z,9.23
2023-03-06T07:40:21.092Z,10.80
2023-03-06T07:42:49.145Z,9.90
2023-03-06T07:45:20.724Z,11.23
2023-03-06T07:47:50.512Z,9.40
2023-03-06T07:50:20.346Z,10.20
2023-03-06T07:52:48.351Z,9.43
2023-03-06T07:55:16.812Z,9.20
2023-03-06T07:57:44.590Z,9.18
2023-03-06T08:00:15.623Z,10.25
2023-03-06T08:02:44.386Z,9.40
2023-03-06T08:05:14.547Z,8.13
2023-03-06T08:07:43.740Z,8.20
2023-03-06T08:10:14.987Z,9.15
2023-03-06T08:12:42.756Z,9.02
2023-03-06T08:15:12.106Z,8.30
2023-03-06T08:17:39.862Z,9.48
2023-03-06T08:20:10.259Z,8.30
2023-03-06T08:22:38.436Z,8.82
2023-03-06T08:25:08.771Z,8.65
2023-03-06T08:27:37.421Z,8.55
2023-03-06T08:30:05.881Z,9.13
2023-03-06T08:32:36.196Z,8.50
2023-03-06T08:35:04.764Z,8.73
2023-03-06T08:37:32.500Z,8.80
2023-03-06T08:40:00.238Z,8.57
2023-03-06T08:42:29.297Z,7.80
2023-03-06T08:44:56.998Z,8.43
2023-03-06T08:47:24.733Z,8.00
2023-03-06T08:49:52.493Z,9.00
2023-03-06T08:52:20.249Z,7.22
2023-03-06T08:54:48.317Z,7.20
2023-03-06T08:57:16.022Z,7.25
2023-03-06T08:59:45.113Z,8.20
2023-03-06T09:02:15.194Z,7.50
2023-03-06T09:04:42.985Z,7.45
2023-03-06T09:07:10.729Z,7.85
2023-03-06T09:09:38.477Z,8.52
2023-03-06T09:12:06.675Z,7.50
2023-03-06T09:14:34.402Z,7.57
2023-03-06T09:17:03.503Z,8.30
2023-03-06T09:19:31.225Z,8.07
2023-03-06T09:22:00.930Z,7.50
2023-03-06T09:24:28.981Z,6.70
2023-03-06T09:26:56.695Z,7.68
2023-03-06T09:29:24.539Z,7.40
2023-03-06T09:31:52.373Z,7.05
2023-03-06T09:34:21.627Z,7.70
2023-03-06T09:36:56.911Z,7.43
2023-03-06T09:39:27.130Z,7.00
2023-03-06T09:41:55.176Z,7.03
2023-03-06T09:44:27.573Z,7.30
2023-03-06T09:47:19.058Z,7.20
2023-03-06T09:50:04.882Z,6.97
2023-03-06T09:52:37.476Z,6.22
2023-03-06T09:55:12.662Z,6.80
2023-03-06T09:57:46.215Z,7.10
2023-03-06T10:00:16.842Z,6.13
2023-03-06T10:02:49.619Z,6.38
2023-03-06T10:05:22.708Z,6.95
2023-03-06T10:07:53.942Z,6.47
2023-03-06T10:10:23.924Z,6.15
2023-03-06T10:13:00.151Z,6.18
2023-03-06T10:15:33.207Z,4.97
2023-03-06T10:18:02.684Z,5.10
2023-03-06T10:20:38.162Z,5.93
2023-03-06T10:23:30.099Z,5.53
2023-03-06T10:26:02.009Z,6.13
2023-03-06T10:28:33.760Z,5.82
2023-03-06T10:31:10.524Z,6.18
2023-03-06T10:33:52.222Z,5.75
2023-03-06T10:36:22.986Z,5.65
2023-03-06T10:38:50.774Z,6.15
2023-03-06T10:41:24.976Z,5.97
2023-03-06T10:44:23.857Z,5.47
2023-03-06T10:46:54.266Z,4.90
2023-03-06T10:49:31.741Z,5.50
2023-03-06T10:52:04.210Z,5.43
2023-03-06T10:54:34.474Z,4.80
2023-03-06T10:57:20.891Z,4.30
2023-03-06T10:59:54.059Z,4.85
2023-03-06T11:02:30.457Z,4.95
2023-03-06T11:05:00.320Z,4.90
2023-03-06T11:07:30.400Z,5.20
2023-03-06T11:10:04.415Z,4.47
2023-03-06T11:12:35.405Z,4.93
2023-03-06T11:15:17.403Z,4.60
2023-03-06T11:18:25.154Z,4.80
2023-03-06T11:20:55.673Z,4.78
2023-03-06T11:23:35.992Z,4.47
2023-03-06T11:26:21.071Z,4.43
2023-03-06T11:28:54.265Z,4.47
2023-03-06T11:31:25.024Z,4.70
2023-03-06T11:33:56.039Z,4.82
2023-03-06T11:36:29.174Z,4.57
2023-03-06T11:38:58.313Z,4.15
2023-03-06T11:41:35.126Z,3.97
2023-03-06T11:44:15.263Z,3.40
2023-03-06T11:46:49.286Z,3.20
2023-03-06T11:49:25.141Z,4.00
2023-03-06T11:51:56.180Z,4.00
2023-03-06T11:54:25.771Z,4.45
2023-03-06T11:56:57.140Z,3.72
2023-03-06T12:00:00.716Z,4.20
2023-03-06T12:02:42.845Z,3.63
2023-03-06T12:05:33.770Z,4.20
2023-03-06T12:08:16.192Z,4.57
2023-03-06T12:10:51.789Z,5.20
2023-03-06T12:13:32.018Z,4.63
2023-03-06T12:16:27.231Z,4.63
2023-03-06T12:19:08.280Z,4.47
2023-03-06T12:21:47.691Z,4.68
2023-03-06T12:24:30.037Z,4.80
2023-03-06T12:27:14.138Z,3.60
2023-03-06T12:29:52.996Z,2.95
2023-03-06T12:32:32.814Z,2.60
2023-03-06T12:35:12.260Z,2.83
2023-03-06T12:37:51.802Z,2.65
2023-03-06T12:40:39.161Z,2.50
2023-03-06T12:43:30.638Z,2.38
2023-03-06T12:46:02.553Z,2.58
2023-03-06T12:48:35.594Z,2.40
2023-03-06T12:51:06.087Z,2.55
2023-03-06T12:53:36.552Z,2.13
2023-03-06T12:56:05.242Z,2.10
2023-03-06T12:58:48.918Z,2.13
2023-03-06T13:01:32.472Z,2.00
2023-03-06T13:04:19.797Z,2.13
2023-03-06T13:07:04.068Z,2.45
2023-03-06T13:09:42.097Z,2.40
2023-03-06T13:12:21.790Z,2.38
2023-03-06T13:14:57.961Z,2.30
2023-03-06T13:17:28.277Z,2.10
2023-03-06T13:20:29.376Z,1.98
2023-03-06T13:22:57.680Z,2.75
2023-03-06T13:25:39.055Z,2.10
2023-03-06T13:28:24.085Z,2.03
2023-03-06T13:30:53.465Z,2.40
2023-03-06T13:33:53.743Z,1.88
2023-03-06T13:36:27.277Z,1.40
2023-03-06T13:38:57.766Z,1.73
2023-03-06T13:41:37.573Z,1.70
2023-03-06T13:44:45.887Z,1.63
2023-03-06T13:48:10.677Z,1.48
2023-03-06T13:50:36.354Z,1.70
2023-03-06T13:53:20.355Z,1.55
2023-03-06T13:56:00.242Z,1.55
2023-03-06T13:58:54.348Z,1.55
2023-03-06T14:01:39.399Z,1.45
2023-03-06T14:04:34.236Z,1.33
2023-03-06T14:07:19.888Z,1.40
2023-03-06T14:09:49.023Z,1.70
2023-03-06T14:12:23.625Z,1.40
2023-03-06T14:14:55.964Z,1.38
2023-03-06T14:17:30.088Z,1.80
2023-03-06T14:20:05.737Z,1.50
2023-03-06T14:22:33.534Z,1.45
2023-03-06T14:25:04.892Z,1.33
2023-03-06T14:27:40.731Z,1.20
2023-03-06T14:30:10.470Z,1.50
2023-03-06T14:32:39.455Z,1.58
2023-03-06T14:35:21.654Z,1.48
2023-03-06T14:37:53.045Z,1.23
2023-03-06T14:40:25.455Z,1.65
2023-03-06T14:43:11.754Z,1.20
2023-03-06T14:45:50.743Z,1.50
2023-03-06T14:48:18.562Z,1.40
2023-03-06T14:50:52.464Z,1.60
2023-03-06T14:53:23.751Z,1.27
2023-03-06T14:55:54.141Z,1.20
2023-03-06T14:58:29.206Z,1.42
2023-03-06T15:01:01.319Z,1.30
2023-03-06T15:03:36.866Z,1.35
2023-03-06T15:06:07.561Z,1.15
2023-03-06T15:08:39.140Z,1.50
2023-03-06T15:11:08.373Z,1.10
2023-03-06T15:13:36.668Z,1.15
2023-03-06T15:16:08.576Z,1.30
2023-03-06T15:18:39.107Z,1.17
2023-03-06T15:21:11.208Z,1.45
2023-03-06T15:23:40.828Z,2.28
2023-03-06T15:26:26.991Z,1.80
2023-03-06T15:29:06.992Z,1.67
2023-03-06T15:31:38.356Z,1.67
2023-03-06T15:34:23.460Z,1.73
2023-03-06T15:36:57.578Z,2.03
2023-03-06T15:39:30.754Z,1.98
2023-03-06T15:41:59.278Z,1.77
2023-03-06T15:44:27.871Z,1.73
2023-03-06T15:47:06.625Z,1.90
2023-03-06T15:49:38.010Z,1.80
2023-03-06T15:52:07.504Z,1.88
2023-03-06T15:54:35.801Z,2.05
2023-03-06T15:57:05.211Z,1.80
2023-03-06T15:59:38.738Z,2.20
2023-03-06T16:02:16.275Z,2.22
2023-03-06T16:04:44.280Z,2.17
2023-03-06T16:07:13.404Z,2.30
2023-03-06T16:09:41.464Z,2.60
2023-03-06T16:12:16.107Z,3.15
2023-03-06T16:14:43.868Z,2.53
2023-03-06T16:17:12.703Z,2.97
2023-03-06T16:19:40.444Z,2.45
2023-03-06T16:22:08.435Z,2.47
2023-03-06T16:24:37.713Z,2.80
2023-03-06T16:27:06.828Z,2.30
2023-03-06T16:29:35.100Z,2.80
2023-03-06T16:32:03.235Z,2.40
2023-03-06T16:34:31.138Z,2.38
2023-03-06T16:36:58.885Z,2.22
2023-03-06T16:39:26.626Z,2.50
2023-03-06T16:41:56.496Z,2.92
2023-03-06T16:44:24.224Z,2.58
2023-03-06T16:46:52.090Z,2.90
2023-03-06T16:49:21.517Z,2.80
2023-03-06T16:51:50.143Z,3.03
2023-03-06T16:54:18.130Z,3.03
2023-03-06T16:56:46.191Z,3.50
2023-03-06T16:59:15.252Z,2.67
2023-03-06T17:01:43.606Z,2.78
2023-03-06T17:04:11.480Z,2.90
2023-03-06T17:06:39.657Z,3.72
2023-03-06T17:09:07.451Z,3.58
2023-03-06T17:11:38.381Z,3.45
2023-03-06T17:14:06.858Z,3.50
2023-03-06T17:16:39.118Z,3.78
2023-03-06T17:19:06.929Z,3.58
2023-03-06T17:21:35.422Z,3.85
2023-03-06T17:24:03.746Z,3.42
2023-03-06T17:26:31.827Z,2.90
2023-03-06T17:28:59.659Z,3.80
2023-03-06T17:31:28.837Z,4.32
2023-03-06T17:34:00.599Z,4.00
2023-03-06T17:36:29.319Z,3.72
2023-03-06T17:38:57.459Z,3.35
2023-03-06T17:41:25.995Z,3.08
2023-03-06T17:43:55.700Z,4.63
2023-03-06T17:46:23.558Z,4.43
2023-03-06T17:48:51.881Z,4.80
2023-03-06T17:51:20.984Z,5.15
2023-03-06T17:53:49.186Z,5.00
2023-03-06T17:56:16.947Z,5.00
2023-03-06T17:58:44.722Z,6.78
2023-03-06T18:01:14.122Z,6.65
2023-03-06T18:03:45.058Z,5.72
2023-03-06T18:06:13.351Z,5.32
2023-03-06T18:08:42.591Z,5.47
2023-03-06T18:11:11.934Z,5.43
2023-03-06T18:13:41.879Z,5.05
2023-03-06T18:16:11.465Z,7.20
2023-03-06T18:18:39.586Z,7.95
2023-03-06T18:21:09.144Z,7.70
2023-03-06T18:23:37.311Z,8.25
2023-03-06T18:26:11.850Z,7.47
2023-03-06T18:28:42.399Z,7.38
2023-03-06T18:31:15.989Z,7.20
2023-03-06T18:33:44.064Z,6.80
2023-03-06T18:36:11.897Z,7.55
2023-03-06T18:38:41.293Z,6.50
2023-03-06T18:41:11.156Z,7.57
2023-03-06T18:43:39.333Z,7.20
2023-03-06T18:46:07.795Z,7.25
2023-03-06T18:48:36.090Z,6.95
2023-03-06T18:51:08.735Z,6.68
2023-03-06T18:53:37.420Z,7.55
2023-03-06T18:56:05.438Z,6.35
2023-03-06T18:58:34.576Z,7.15
2023-03-06T19:01:07.295Z,6.65
2023-03-06T19:03:35.138Z,7.45
2023-03-06T19:06:06.284Z,8.77
2023-03-06T19:08:34.867Z,7.53
2023-03-06T19:11:03.664Z,8.00
2023-03-06T19:13:31.930Z,7.00
2023-03-06T19:16:01.324Z,7.20
2023-03-06T19:18:30.149Z,9.13
2023-03-06T19:21:08.533Z,9.35
2023-03-06T19:23:36.435Z,9.20
2023-03-06T19:26:04.737Z,11.18
2023-03-06T19:28:33.563Z,11.02
2023-03-06T19:31:08.809Z,10.77
2023-03-06T19:33:37.787Z,11.20
2023-03-06T19:36:06.191Z,10.93
2023-03-06T19:38:34.181Z,12.95
2023-03-06T19:41:01.914Z,11.27
2023-03-06T19:43:30.094Z,13.57
2023-03-06T19:45:58.527Z,13.02
2023-03-06T19:48:27.693Z,12.98
2023-03-06T19:50:55.464Z,13.35
2023-03-06T19:53:23.523Z,13.10
2023-03-06T19:55:51.243Z,12.63
2023-03-06T19:58:18.942Z,15.95
2023-03-06T20:00:46.769Z,12.88
2023-03-06T20:03:14.540Z,13.32
2023-03-06T20:05:48.060Z,13.93
2023-03-06T20:08:15.795Z,13.40
2023-03-06T20:10:43.515Z,15.63
2023-03-06T20:13:11.249Z,13.02
2023-03-06T20:15:39.024Z,13.68
2023-03-06T20:18:06.867Z,14.18
2023-03-06T20:20:34.658Z,15.75
2023-03-06T20:23:04.568Z,13.52
2023-03-06T20:25:32.393Z,14.57
2023-03-06T20:28:00.243Z,14.90
2023-03-06T20:30:37.566Z,16.73
2023-03-06T20:33:06.361Z,15.82
2023-03-06T20:35:34.071Z,16.77
2023-03-06T20:38:03.211Z,13.77
2023-03-06T20:40:31.025Z,17.17
2023-03-06T20:42:58.777Z,16.30
2023-03-06T20:45:26.488Z,15.88
2023-03-06T20:47:56.205Z,14.70
2023-03-06T20:50:25.510Z,14.90
2023-03-06T20:52:55.065Z,15.85
2023-03-06T20:55:24.265Z,14.63
2023-03-06T20:57:52.467Z,16.27
2023-03-06T21:00:21.218Z,14.23
2023-03-06T21:02:49.021Z,16.67
2023-03-06T21:05:17.012Z,18.42
2023-03-06T21:07:44.749Z,15.10
2023-03-06T21:10:14.471Z,16.17
2023-03-06T21:12:43.560Z,18.02
2023-03-06T21:15:12.937Z,17.35
2023-03-06T21:17:40.660Z,15.43
2023-03-06T21:20:10.516Z,17.55
2023-03-06T21:22:38.275Z,16.30
2023-03-06T21:25:06.712Z,15.35
2023-03-06T21:27:34.573Z,17.33
2023-03-06T21:30:03.911Z,17.17
2023-03-06T21:32:32.442Z,16.90
2023-03-06T21:35:00.231Z,15.20
2023-03-06T21:37:28.092Z,17.48
2023-03-06T21:39:59.715Z,16.70
2023-03-06T21:42:27.536Z,18.08
2023-03-06T21:44:55.251Z,18.05
2023-03-06T21:47:24.346Z,17.90
2023-03-06T21:49:52.117Z,17.00
2023-03-06T21:52:19.871Z,17.15
2023-03-06T21:54:49.654Z,16.63
2023-03-06T21:57:17.374Z,16.63
2023-03-06T21:59:45.080Z,18.10
2023-03-06T22:02:12.860Z,17.92
2023-03-06T22:04:42.001Z,19.17
2023-03-06T22:07:09.688Z,17.23
2023-03-06T22:09:37.469Z,17.17
2023-03-06T22:12:05.816Z,16.98
2023-03-06T22:14:33.659Z,16.98
2023-03-06T22:17:01.423Z,16.30
2023-03-06T22:19:29.146Z,16.17
2023-03-06T22:21:58.321Z,16.70
2023-03-06T22:24:26.161Z,15.70
2023-03-06T22:26:53.939Z,15.93
2023-03-06T22:29:21.703Z,16.00
2023-03-06T22:31:49.460Z,15.15
2023-03-06T22:34:17.479Z,15.55
2023-03-06T22:36:45.197Z,12.32
2023-03-06T22:39:14.900Z,14.15
2023-03-06T22:41:42.861Z,12.70
2023-03-06T22:44:15.286Z,13.18
2023-03-06T22:46:43.054Z,13.90
2023-03-06T22:49:12.931Z,14.32
2023-03-06T22:51:41.158Z,11.93
2023-03-06T22:54:09.217Z,12.05
2023-03-06T22:56:38.579Z,12.02
2023-03-06T22:59:06.562Z,12.88
2023-03-06T23:01:35.322Z,12.80
2023-03-06T23:04:04.878Z,11.98
2023-03-06T23:06:34.080Z,11.40
2023-03-06T23:09:05.824Z,11.40
2023-03-06T23:11:54.015Z,12.05
2023-03-06T23:14:40.995Z,11.25
2023-03-06T23:17:27.830Z,13.43
2023-03-06T23:20:15.238Z,12.10
2023-03-06T23:23:02.042Z,12.73
2023-03-06T23:25:42.109Z,11.73
2023-03-06T23:28:11.488Z,12.52
2023-03-06T23:30:39.722Z,10.65
2023-03-06T23:33:07.989Z,12.48
2023-03-06T23:35:36.495Z,12.75
2023-03-06T23:38:04.360Z,11.35
2023-03-06T23:40:34.813Z,12.73
2023-03-06T23:43:03.797Z,13.32
2023-03-06T23:45:32.990Z,13.32
2023-03-06T23:48:00.766Z,11.35
2023-03-06T23:50:28.539Z,11.40
2023-03-06T23:52:56.646Z,12.63
2023-03-06T23:55:24.435Z,11.35
2023-03-06T23:57:52.106Z,11.60
